TimeEST,TemperatureF,Dew PointF,Humidity,Sea Level PressureIn,VisibilityMPH,Wind Direction,Wind SpeedMPH,Gust SpeedMPH,PrecipitationIn,Events,Conditions,WindDirDegrees,DateUTC
12:15 AM,26.6,21.2,80,30.09,10.0,Calm,Calm,-,N/A,,Overcast,0,2013-01-24 05:15:00
12:35 AM,26.6,21.2,80,30.09,10.0,Calm,Calm,-,N/A,,Overcast,0,2013-01-24 05:35:00
12:55 AM,26.6,21.2,80,30.09,10.0,Calm,Calm,-,N/A,,Unknown,0,2013-01-24 05:55:00
1:15 AM,26.6,23.0,86,30.09,10.0,Calm,Calm,-,N/A,,Overcast,0,2013-01-24 06:15:00
1:35 AM,32.0,24.8,75,30.09,10.0,WNW,17.3,26.5,N/A,,Overcast,290,2013-01-24 06:35:00
1:55 AM,39.2,28.4,65,30.10,10.0,West,9.2,19.6,N/A,,Overcast,280,2013-01-24 06:55:00
2:15 AM,37.4,24.8,60,30.11,10.0,West,11.5,17.3,N/A,,Overcast,280,2013-01-24 07:15:00
2:55 AM,37.4,23.0,56,30.13,10.0,West,11.5,20.7,N/A,,Unknown,260,2013-01-24 07:55:00
3:15 AM,35.6,23.0,60,30.14,10.0,West,9.2,18.4,N/A,,Unknown,260,2013-01-24 08:15:00
3:35 AM,35.6,21.2,56,30.15,10.0,West,10.4,17.3,N/A,,Overcast,270,2013-01-24 08:35:00
3:55 AM,33.8,19.4,56,30.16,10.0,West,8.1,-,N/A,,Overcast,280,2013-01-24 08:55:00
4:15 AM,32.0,19.4,60,30.16,10.0,WNW,8.1,18.4,N/A,,Overcast,290,2013-01-24 09:15:00
4:35 AM,32.0,17.6,55,30.17,10.0,West,12.7,16.1,N/A,,Overcast,280,2013-01-24 09:35:00
4:55 AM,32.0,17.6,55,30.18,10.0,WNW,6.9,-,N/A,,Overcast,290,2013-01-24 09:55:00
5:15 AM,32.0,17.6,55,30.18,10.0,NW,10.4,-,N/A,,Overcast,310,2013-01-24 10:15:00
5:35 AM,32.0,17.6,55,30.20,10.0,NW,10.4,-,N/A,,Overcast,310,2013-01-24 10:35:00
5:55 AM,30.2,15.8,55,30.22,10.0,NW,9.2,-,N/A,,Overcast,310,2013-01-24 10:55:00
6:15 AM,30.2,15.8,55,30.22,10.0,WNW,8.1,-,N/A,,Overcast,290,2013-01-24 11:15:00
6:35 AM,28.4,15.8,59,30.23,10.0,NNW,10.4,-,N/A,,Overcast,330,2013-01-24 11:35:00
6:55 AM,28.4,15.8,59,30.25,10.0,NW,11.5,-,N/A,,Overcast,320,2013-01-24 11:55:00
7:15 AM,28.4,15.8,59,30.27,10.0,North,9.2,-,N/A,,Overcast,350,2013-01-24 12:15:00
7:35 AM,28.4,14.0,55,30.29,10.0,NNW,10.4,-,N/A,,Overcast,330,2013-01-24 12:35:00
7:55 AM,26.6,14.0,59,30.30,10.0,North,10.4,-,N/A,,Overcast,350,2013-01-24 12:55:00
8:15 AM,26.6,12.2,55,30.32,10.0,NNW,6.9,-,N/A,,Mostly Cloudy,340,2013-01-24 13:15:00
8:35 AM,26.6,14.0,59,30.33,10.0,North,8.1,-,N/A,,Mostly Cloudy,350,2013-01-24 13:35:00
8:55 AM,24.8,10.4,54,30.35,10.0,NNW,6.9,-,N/A,,Overcast,330,2013-01-24 13:55:00
9:15 AM,24.8,8.6,50,30.37,10.0,NNW,13.8,18.4,N/A,,Partly Cloudy,340,2013-01-24 14:15:00
9:35 AM,24.8,6.8,46,30.38,10.0,NW,8.1,-,N/A,,Clear,320,2013-01-24 14:35:00
9:55 AM,24.8,5.0,43,30.39,10.0,NW,8.1,-,N/A,,Clear,310,2013-01-24 14:55:00
10:15 AM,24.8,5.0,43,30.39,10.0,NNW,6.9,-,N/A,,Clear,340,2013-01-24 15:15:00
10:35 AM,26.6,1.4,34,30.40,10.0,NNW,6.9,-,N/A,,Clear,330,2013-01-24 15:35:00
10:55 AM,26.6,1.4,34,30.41,10.0,North,10.4,16.1,N/A,,Clear,350,2013-01-24 15:55:00
11:15 AM,26.6,1.4,34,30.42,10.0,NNW,8.1,-,N/A,,Clear,340,2013-01-24 16:15:00
11:35 AM,26.6,1.4,34,30.42,10.0,NNW,8.1,-,N/A,,Clear,340,2013-01-24 16:35:00
11:55 AM,28.4,1.4,31,30.42,10.0,NW,10.4,-,N/A,,Clear,320,2013-01-24 16:55:00
12:15 PM,28.4,1.4,31,30.42,10.0,NNW,6.9,-,N/A,,Clear,330,2013-01-24 17:15:00
12:35 PM,28.4,1.4,31,30.41,10.0,NNW,9.2,16.1,N/A,,Clear,340,2013-01-24 17:35:00
12:55 PM,28.4,1.4,31,30.41,10.0,NNW,8.1,18.4,N/A,,Clear,330,2013-01-24 17:55:00
1:15 PM,28.4,-0.4,29,30.41,10.0,NW,10.4,-,N/A,,Clear,310,2013-01-24 18:15:00
1:35 PM,30.2,-0.4,27,30.40,10.0,NNW,8.1,-,N/A,,Clear,340,2013-01-24 18:35:00
1:55 PM,30.2,-0.4,27,30.39,10.0,North,9.2,-,N/A,,Clear,360,2013-01-24 18:55:00
2:35 PM,32.0,-2.2,23,30.39,10.0,North,3.5,-,N/A,,Clear,350,2013-01-24 19:35:00
2:55 PM,32.0,-2.2,23,30.40,10.0,North,5.8,-,N/A,,Clear,10,2013-01-24 19:55:00
3:15 PM,32.0,-2.2,23,30.40,10.0,NNW,4.6,-,N/A,,Clear,340,2013-01-24 20:15:00
3:35 PM,30.2,-2.2,25,30.40,10.0,NNW,5.8,-,N/A,,Clear,340,2013-01-24 20:35:00
3:55 PM,32.0,-2.2,23,30.41,10.0,NE,3.5,-,N/A,,Clear,40,2013-01-24 20:55:00
4:15 PM,32.0,-2.2,23,30.41,10.0,North,3.5,-,N/A,,Clear,360,2013-01-24 21:15:00
4:35 PM,30.2,-2.2,25,30.41,10.0,NNE,3.5,-,N/A,,Clear,30,2013-01-24 21:35:00
4:55 PM,30.2,-0.4,27,30.41,10.0,North,4.6,-,N/A,,Clear,350,2013-01-24 21:55:00
5:15 PM,28.4,-0.4,29,30.42,10.0,NNW,4.6,-,N/A,,Clear,340,2013-01-24 22:15:00
5:35 PM,28.4,-0.4,29,30.41,10.0,North,4.6,-,N/A,,Clear,350,2013-01-24 22:35:00
5:55 PM,26.6,-0.4,31,30.42,10.0,Calm,Calm,-,N/A,,Clear,0,2013-01-24 22:55:00
6:35 PM,24.8,-0.4,34,30.44,10.0,Calm,Calm,-,N/A,,Partly Cloudy,0,2013-01-24 23:35:00
6:55 PM,24.8,-0.4,34,30.43,10.0,Calm,Calm,-,N/A,,Partly Cloudy,0,2013-01-24 23:55:00
7:15 PM,23.0,1.4,39,30.44,10.0,Calm,Calm,-,N/A,,Partly Cloudy,0,2013-01-25 00:15:00
7:35 PM,23.0,5.0,46,30.44,10.0,Calm,Calm,-,N/A,,Clear,0,2013-01-25 00:35:00
7:55 PM,23.0,5.0,46,30.43,10.0,Calm,Calm,-,N/A,,Clear,0,2013-01-25 00:55:00
8:15 PM,23.0,3.2,43,30.43,10.0,ENE,3.5,-,N/A,,Clear,70,2013-01-25 01:15:00
8:35 PM,23.0,1.4,39,30.41,10.0,East,6.9,-,N/A,,Clear,80,2013-01-25 01:35:00
8:55 PM,23.0,1.4,39,30.41,10.0,ENE,6.9,-,N/A,,Clear,70,2013-01-25 01:55:00
9:15 PM,23.0,1.4,39,30.40,10.0,ENE,8.1,-,N/A,,Clear,60,2013-01-25 02:15:00
9:35 PM,23.0,1.4,39,30.40,10.0,ENE,4.6,-,N/A,,Clear,60,2013-01-25 02:35:00
9:55 PM,21.2,1.4,42,30.40,10.0,Calm,Calm,-,N/A,,Clear,0,2013-01-25 02:55:00
10:15 PM,21.2,1.4,42,30.40,10.0,Calm,Calm,-,N/A,,Clear,0,2013-01-25 03:15:00
10:35 PM,19.4,5.0,54,30.39,10.0,NE,3.5,-,N/A,,Clear,50,2013-01-25 03:35:00
10:55 PM,17.6,3.2,53,30.39,10.0,Calm,Calm,-,N/A,,Clear,0,2013-01-25 03:55:00
11:15 PM,19.4,1.4,46,30.38,10.0,Calm,Calm,-,N/A,,Clear,0,2013-01-25 04:15:00
11:35 PM,17.6,5.0,58,30.38,10.0,NE,3.5,-,N/A,,Clear,50,2013-01-25 04:35:00
11:55 PM,19.4,5.0,54,30.37,10.0,ENE,3.5,-,N/A,,Clear,60,2013-01-25 04:55:00